aviador You're here:

YSWG Decoded Metar

WAGGA WAGGA in AUSTRALIA
Report Time2017-08-22 16:00:00
UTC Time2017-08-22 16:40:26
Flight Rules vfr VFR
Wind090° at 05 kt
W.Decomp.*RWY 05: 4.4 kt HW 2.3 kt RCW
RWY 12: 3.7 kt HW 3.3 kt LCW
W.Rank090° ranks 1
Current wind is below 090° avg. (6.7)
Visibility9999 m
Phenomena:N/A
Clouds:N/A
Expected CloudBase > 400 ft AGL from Temp-Dew spread
CeilingNone
Temp03°C (ISA -11)
Dew Point02°C (93% RH)
AAT-0.5°C
QNH1020 hPa
Density Alt-725 ft
Elevation699 ft
Report Wrong Elevation
Raw Report
YSWG 221600Z AUTO 09005KT 9999 // NCD 03/02 Q1020=

Extra information for YSWG:More info

Metar Taf Metar & Taf Last 4 Metars F.Rules Stats Wind Profile Meteogram Temp Stats Airport Information Weather charts Add Link Nearby VenuesMetar ALERT Operation Metar Decoded Social comments